Time;durP1;ratioP1;P1;durP2;ratioP2;P2;SDS_P1;SDS_P2;PMS_P1;PMS_P2;Temp;Humidity;BMP_temperature;BMP_pressure;BME280_temperature;BME280_humidity;BME280_pressure;Samples;Min_cycle;Max_cycle;Signal;HPM_P1;HPM_P2
2022/12/14 00:01:10;;;;;;;20.07;17.87;;;;;;;-0.76;92.41;98984.25;5022632;28;20191;-74
2022/12/14 00:03:36;;;;;;;23.47;19.77;;;;;;;-0.75;92.54;98973.25;5026504;28;20727;-73
2022/12/14 00:06:28;;;;;;;22.30;18.77;;;;;;;-0.75;92.81;98969.84;5021906;28;20197;-73
2022/12/14 00:08:57;;;;;;;21.13;18.27;;;;;;;-0.73;92.94;98968.19;5020722;28;20572;-74
2022/12/14 00:11:23;;;;;;;22.10;18.50;;;;;;;-0.69;92.95;98980.13;5024088;28;20202;-74
2022/12/14 00:13:56;;;;;;;22.23;19.00;;;;;;;-0.67;92.86;98965.75;5017843;28;20280;-74
2022/12/14 00:16:24;;;;;;;22.20;19.43;;;;;;;-0.67;93.10;98955.59;5020985;28;20192;-74
2022/12/14 00:18:53;;;;;;;21.57;18.43;;;;;;;-0.65;93.13;98956.47;5021004;28;20198;-73
2022/12/14 00:21:19;;;;;;;20.73;17.93;;;;;;;-0.64;93.08;98950.56;5023831;28;20194;-74
2022/12/14 00:23:45;;;;;;;20.23;18.03;;;;;;;-0.64;93.17;98948.84;5021761;28;20212;-74
2022/12/14 00:26:14;;;;;;;20.13;17.23;;;;;;;-0.63;93.27;98950.56;5020733;28;20729;-73
2022/12/14 00:28:41;;;;;;;19.70;16.90;;;;;;;-0.62;93.37;98952.28;5020346;28;20200;-74
2022/12/14 00:31:06;;;;;;;19.53;17.20;;;;;;;-0.61;93.62;98943.00;5024861;28;20260;-75
2022/12/14 00:33:32;;;;;;;19.43;16.67;;;;;;;-0.60;93.81;98954.00;5020724;28;20796;-74
2022/12/14 00:35:58;;;;;;;18.43;16.40;;;;;;;-0.59;93.64;98954.00;5018223;28;20860;-75
2022/12/14 00:38:23;;;;;;;19.27;17.07;;;;;;;-0.60;93.94;98949.75;5018767;28;20205;-73
2022/12/14 00:40:49;;;;;;;18.67;16.67;;;;;;;-0.61;94.18;98950.59;5023888;28;20235;-75
2022/12/14 00:43:14;;;;;;;18.23;16.33;;;;;;;-0.62;94.19;98951.44;5022271;28;20296;-74
2022/12/14 00:45:43;;;;;;;19.60;17.17;;;;;;;-0.60;94.32;98939.59;5026376;28;20348;-74
2022/12/14 00:48:08;;;;;;;21.73;17.63;;;;;;;-0.59;94.18;98936.22;5023112;28;20543;-74
2022/12/14 00:50:34;;;;;;;19.13;17.10;;;;;;;-0.59;94.38;98938.75;5023756;28;20272;-75
2022/12/14 00:52:59;;;;;;;19.47;17.10;;;;;;;-0.60;94.50;98943.81;5020160;28;20228;-75
2022/12/14 00:55:24;;;;;;;18.03;15.90;;;;;;;-0.60;94.71;98937.03;5023978;28;20252;-74
2022/12/14 00:57:50;;;;;;;19.53;17.27;;;;;;;-0.59;94.79;98933.66;5020564;28;20201;-74
2022/12/14 01:00:15;;;;;;;19.23;15.93;;;;;;;-0.57;94.99;98941.34;5024526;28;20807;-74
2022/12/14 01:02:40;;;;;;;17.00;15.20;;;;;;;-0.54;94.75;98951.56;5006464;28;20928;-75
2022/12/14 01:05:06;;;;;;;17.50;15.80;;;;;;;-0.52;94.87;98954.94;5014096;28;20201;-73
2022/12/14 01:07:31;;;;;;;17.83;15.67;;;;;;;-0.50;94.81;98948.19;5023874;28;20637;-74
2022/12/14 01:09:57;;;;;;;19.50;16.70;;;;;;;-0.48;94.77;98949.06;5027526;28;20217;-73
2022/12/14 01:12:22;;;;;;;18.67;16.67;;;;;;;-0.45;94.96;98940.66;5022046;28;20282;-74
2022/12/14 01:14:48;;;;;;;18.40;16.30;;;;;;;-0.45;94.99;98936.41;5028382;28;20210;-74
2022/12/14 01:17:13;;;;;;;18.20;15.80;;;;;;;-0.44;94.95;98934.72;5027309;28;20241;-73
2022/12/14 01:19:38;;;;;;;18.13;15.73;;;;;;;-0.42;95.07;98948.31;5053802;28;20218;-76
2022/12/14 01:22:04;;;;;;;18.20;15.80;;;;;;;-0.41;95.16;98944.94;5051587;28;20196;-73
2022/12/14 01:24:29;;;;;;;20.43;17.03;;;;;;;-0.40;95.07;98939.88;5027975;28;20208;-74
2022/12/14 01:26:54;;;;;;;18.93;16.97;;;;;;;-0.38;94.82;98935.66;5022441;28;20187;-74
2022/12/14 01:29:20;;;;;;;19.33;16.47;;;;;;;-0.37;94.98;98937.38;5024554;28;20190;-72
2022/12/14 01:31:45;;;;;;;18.83;16.83;;;;;;;-0.35;94.95;98929.78;5028861;28;20203;-74
2022/12/14 01:34:10;;;;;;;20.57;16.93;;;;;;;-0.35;94.77;98922.16;5016614;28;20221;-75
2022/12/14 01:36:37;;;;;;;19.37;16.70;;;;;;;-0.34;94.80;98926.41;5016815;28;20195;-74
2022/12/14 01:39:08;;;;;;;17.53;15.73;;;;;;;-0.31;94.98;98931.53;5037480;28;20194;-73
2022/12/14 01:41:39;;;;;;;19.80;17.73;;;;;;;-0.26;94.82;98934.13;5021181;28;20190;-75
2022/12/14 01:44:07;;;;;;;20.50;18.33;;;;;;;-0.26;94.88;98926.50;5008454;28;20211;-74
2022/12/14 01:46:44;;;;;;;19.17;17.17;;;;;;;-0.26;94.91;98916.31;5020264;28;20195;-73
2022/12/14 01:49:25;;;;;;;18.70;16.57;;;;;;;-0.26;94.97;98908.69;5020350;28;20193;-74
2022/12/14 01:52:04;;;;;;;19.13;17.13;;;;;;;-0.27;94.84;98914.63;5016371;28;20210;-73
2022/12/14 01:54:32;;;;;;;19.27;17.07;;;;;;;-0.29;94.77;98917.13;5021494;28;20224;-73
2022/12/14 01:56:58;;;;;;;18.50;16.53;;;;;;;-0.26;94.90;98916.31;5019837;28;20187;-75
2022/12/14 01:59:31;;;;;;;17.47;15.73;;;;;;;-0.24;94.76;98912.13;5022555;28;20188;-73
2022/12/14 02:01:57;;;;;;;17.57;15.67;;;;;;;-0.25;94.88;98908.72;5008390;28;20666;-73
2022/12/14 02:04:23;;;;;;;19.00;16.87;;;;;;;-0.25;94.87;98912.97;5026520;28;20206;-74
2022/12/14 02:06:50;;;;;;;18.53;16.67;;;;;;;-0.24;94.74;98905.34;5022951;28;20187;-74
2022/12/14 02:09:21;;;;;;;18.07;16.07;;;;;;;-0.24;95.08;98895.16;5022031;28;20197;-73
2022/12/14 02:12:09;;;;;;;18.30;16.33;;;;;;;-0.22;94.91;98901.13;5020289;28;20189;-74
2022/12/14 02:14:34;;;;;;;18.97;16.20;;;;;;;-0.21;94.90;98884.16;5014234;28;20221;-73
2022/12/14 02:17:00;;;;;;;23.43;17.80;;;;;;;-0.20;94.91;98889.28;5018437;28;20534;-73
2022/12/14 02:19:26;;;;;;;18.63;16.37;;;;;;;-0.19;94.80;98882.50;5020738;28;20272;-74
2022/12/14 02:22:27;;;;;;;20.00;17.33;;;;;;;-0.18;94.72;98891.84;5020504;28;20620;-73
2022/12/14 02:25:27;;;;;;;20.23;17.17;;;;;;;-0.21;94.90;98889.25;5034976;28;20825;-74
2022/12/14 02:28:17;;;;;;;19.27;17.17;;;;;;;-0.20;94.85;98889.28;5025236;28;20211;-74
2022/12/14 02:30:55;;;;;;;19.63;16.47;;;;;;;-0.21;94.99;98890.13;5018154;28;20196;-74
2022/12/14 02:33:39;;;;;;;19.07;16.90;;;;;;;-0.20;95.08;98888.41;5019246;28;20211;-74
2022/12/14 02:36:35;;;;;;;18.30;16.37;;;;;;;-0.18;94.93;98889.28;5020507;28;20838;-74
2022/12/14 02:39:16;;;;;;;17.80;15.73;;;;;;;-0.16;95.06;98885.09;5017550;28;20197;-73
2022/12/14 02:42:12;;;;;;;18.90;16.23;;;;;;;-0.16;95.09;98880.88;5040110;28;20194;-72
2022/12/14 02:44:37;;;;;;;19.87;17.77;;;;;;;-0.16;95.01;98885.97;5017536;28;20825;-75
2022/12/14 02:47:14;;;;;;;17.80;15.70;;;;;;;-0.16;95.03;98877.47;5005908;28;20185;-74
2022/12/14 02:49:58;;;;;;;17.20;15.47;;;;;;;-0.16;95.10;98880.00;5016059;28;20233;-73
2022/12/14 02:52:40;;;;;;;19.33;16.30;;;;;;;-0.13;95.09;98874.97;5009796;28;20688;-73
2022/12/14 02:55:26;;;;;;;18.63;16.73;;;;;;;-0.11;95.14;98872.41;5023001;28;20206;-72
2022/12/14 02:57:54;;;;;;;17.43;15.53;;;;;;;-0.11;94.99;98865.66;5017114;28;20729;-73
2022/12/14 03:00:20;;;;;;;17.17;15.40;;;;;;;-0.10;95.21;98866.50;5017645;28;20891;-73
2022/12/14 03:02:47;;;;;;;16.93;15.13;;;;;;;-0.10;95.01;98872.44;5026122;28;20278;-74
2022/12/14 03:05:13;;;;;;;19.40;17.30;;;;;;;-0.10;95.05;98872.44;5005491;28;20187;-74
2022/12/14 03:07:47;;;;;;;18.37;16.23;;;;;;;-0.08;94.93;98867.38;5024994;28;20795;-73
2022/12/14 03:10:31;;;;;;;18.70;16.57;;;;;;;-0.08;95.11;98873.31;5028398;28;20193;-73
2022/12/14 03:13:04;;;;;;;17.33;15.53;;;;;;;-0.08;94.93;98860.63;5018370;28;20226;-74
2022/12/14 03:15:31;;;;;;;18.53;16.57;;;;;;;-0.07;95.04;98864.00;5022415;28;20246;-73
2022/12/14 03:18:00;;;;;;;18.43;16.43;;;;;;;-0.09;95.06;98858.91;5029137;28;20193;-72
2022/12/14 03:20:30;;;;;;;17.83;15.70;;;;;;;-0.08;95.02;98860.63;5021086;28;20197;-75
2022/12/14 03:23:01;;;;;;;17.37;15.57;;;;;;;-0.07;95.06;98856.38;5024648;28;20290;-74
2022/12/14 03:25:58;;;;;;;17.07;15.27;;;;;;;-0.05;94.94;98862.31;5024763;28;20240;-74
2022/12/14 03:28:39;;;;;;;18.90;16.30;;;;;;;-0.04;95.00;98859.78;5019068;28;20205;-73
2022/12/14 03:31:10;;;;;;;17.47;15.67;;;;;;;-0.02;94.91;98844.56;5020596;28;20568;-75
2022/12/14 03:33:37;;;;;;;18.40;16.50;;;;;;;-0.01;94.71;98848.81;5042989;28;20223;-75
2022/12/14 03:36:12;;;;;;;17.67;15.80;;;;;;;-0.02;94.89;98842.84;5050183;28;20159;-74
2022/12/14 03:38:48;;;;;;;18.90;16.23;;;;;;;-0.02;94.79;98832.69;5027782;28;20274;-73
2022/12/14 03:41:43;;;;;;;17.00;15.30;;;;;;;-0.03;94.92;98825.06;5022725;28;20677;-74
2022/12/14 03:44:30;;;;;;;16.87;15.17;;;;;;;-0.02;94.86;98816.59;5002927;28;20605;-75
2022/12/14 03:47:33;;;;;;;18.60;16.60;;;;;;;0.01;94.67;98811.50;5019831;28;20215;-74
2022/12/14 03:50:14;;;;;;;19.17;17.13;;;;;;;0.01;94.50;98813.22;5012169;28;20191;-74
2022/12/14 03:52:57;;;;;;;20.57;17.93;;;;;;;0.02;94.36;98807.28;5020145;28;22150;-74
2022/12/14 03:55:29;;;;;;;20.07;16.23;;;;;;;0.01;94.44;98801.31;5020392;28;20192;-74
2022/12/14 03:57:57;;;;;;;20.43;17.17;;;;;;;0.00;94.23;98807.28;5023583;28;20221;-73
2022/12/14 04:00:25;;;;;;;18.53;16.63;;;;;;;-0.02;94.26;98803.88;5013724;28;20191;-74
2022/12/14 04:03:21;;;;;;;18.00;16.10;;;;;;;-0.02;94.30;98807.25;5022164;28;20594;-75
2022/12/14 04:05:59;;;;;;;17.83;15.97;;;;;;;0.00;94.14;98807.28;5020419;28;20189;-74
2022/12/14 04:08:51;;;;;;;19.10;17.00;;;;;;;-0.03;94.21;98802.16;5024041;28;20198;-73
2022/12/14 04:19:52;;;;;;;18.27;16.23;;;;;;;0.00;94.60;98807.28;5021093;28;20197;-73
2022/12/14 04:22:22;;;;;;;19.07;17.07;;;;;;;0.00;94.49;98792.03;5015843;28;20268;-74
2022/12/14 04:29:55;;;;;;;22.07;19.67;;;;;;;-0.06;94.01;98808.06;5018737;28;20284;-73
2022/12/14 04:31:03;;;;;;;20.73;17.90;;;;;;;-0.09;94.25;98814.81;5016583;28;20193;-74
2022/12/14 04:33:46;;;;;;;20.03;16.93;;;;;;;-0.10;94.45;98802.91;5017849;28;20219;-74
2022/12/14 04:36:16;;;;;;;18.33;16.33;;;;;;;-0.08;94.48;98807.22;5017362;28;20214;-73
2022/12/14 04:38:43;;;;;;;17.60;15.80;;;;;;;-0.07;94.65;98797.88;5016676;28;20554;-73
2022/12/14 04:41:17;;;;;;;18.73;16.73;;;;;;;-0.04;94.59;98795.38;5015723;28;20193;-73
2022/12/14 04:43:45;;;;;;;17.80;15.90;;;;;;;-0.06;94.31;98795.34;5015840;28;20209;-74
2022/12/14 04:46:15;;;;;;;18.87;16.97;;;;;;;-0.05;94.19;98793.66;5028936;28;20657;-74
2022/12/14 04:48:43;;;;;;;17.73;15.30;;;;;;;-0.08;94.39;98794.50;5034875;28;20681;-73
2022/12/14 04:51:35;;;;;;;18.07;15.80;;;;;;;-0.07;94.36;98793.63;5015441;28;20183;-76
2022/12/14 04:54:18;;;;;;;15.83;14.13;;;;;;;-0.06;94.24;98781.78;5017658;28;20219;-73
2022/12/14 04:56:59;;;;;;;16.03;14.30;;;;;;;-0.08;94.27;98784.31;5022082;28;20289;-74
2022/12/14 04:59:24;;;;;;;16.67;14.30;;;;;;;-0.09;94.52;98790.25;5019386;28;20186;-74
2022/12/14 05:02:02;;;;;;;17.23;15.20;;;;;;;-0.07;94.59;98798.72;5007624;28;21124;-72
2022/12/14 05:04:56;;;;;;;15.77;14.07;;;;;;;-0.06;94.66;98791.94;5019774;28;20322;-75
2022/12/14 05:07:31;;;;;;;15.07;13.47;;;;;;;-0.05;94.69;98793.66;5030581;28;20196;-72
2022/12/14 05:10:05;;;;;;;16.03;14.33;;;;;;;-0.06;94.89;98797.88;5027817;28;20211;-74
2022/12/14 05:12:43;;;;;;;16.17;14.40;;;;;;;-0.04;94.91;98791.13;5031291;28;20198;-74
2022/12/14 05:15:22;;;;;;;16.50;14.80;;;;;;;-0.03;95.09;98794.53;5030564;28;20194;-74
2022/12/14 05:17:48;;;;;;;17.23;15.33;;;;;;;-0.03;95.28;98781.81;5027159;28;20240;-74
2022/12/14 05:20:19;;;;;;;18.47;16.43;;;;;;;-0.01;95.56;98764.88;5026383;28;20266;-74
2022/12/14 05:22:44;;;;;;;17.83;16.03;;;;;;;0.01;95.79;98765.72;5024484;28;20948;-75
2022/12/14 05:25:10;;;;;;;19.77;17.77;;;;;;;0.01;95.71;98773.34;5025947;28;20190;-74
2022/12/14 05:27:36;;;;;;;17.40;15.50;;;;;;;0.00;96.04;98771.69;5030828;28;20710;-76
2022/12/14 05:30:02;;;;;;;18.80;16.80;;;;;;;0.00;96.16;98771.69;5025142;28;20195;-75
2022/12/14 05:32:28;;;;;;;18.40;16.37;;;;;;;-0.02;96.19;98771.66;5030583;28;20222;-74
2022/12/14 05:34:53;;;;;;;18.57;16.57;;;;;;;-0.04;96.47;98763.13;5019867;28;20218;-74
2022/12/14 05:37:19;;;;;;;18.03;16.07;;;;;;;-0.04;96.55;98758.06;5020267;28;20215;-75
2022/12/14 05:39:44;;;;;;;20.20;18.10;;;;;;;-0.02;96.81;98755.53;5024856;28;20267;-74
2022/12/14 05:42:10;;;;;;;19.80;17.70;;;;;;;-0.03;96.88;98758.94;5018612;28;20265;-73
2022/12/14 05:44:35;;;;;;;20.03;17.87;;;;;;;-0.03;97.22;98764.00;5019017;28;20199;-74
2022/12/14 05:47:00;;;;;;;20.83;18.47;;;;;;;-0.01;97.48;98764.88;5040399;28;20194;-75
2022/12/14 05:49:28;;;;;;;21.07;18.80;;;;;;;-0.01;97.68;98755.53;5056570;28;20187;-75
2022/12/14 05:51:53;;;;;;;19.50;17.47;;;;;;;-0.04;98.07;98752.13;5039458;28;20922;-73
2022/12/14 05:54:19;;;;;;;20.13;18.03;;;;;;;-0.06;98.22;98749.56;5009976;28;20221;-73
2022/12/14 05:56:44;;;;;;;20.63;18.30;;;;;;;-0.05;98.65;98737.72;5031902;28;20691;-73
2022/12/14 05:59:14;;;;;;;21.80;18.57;;;;;;;-0.05;98.73;98737.72;5024714;28;20205;-73
2022/12/14 06:01:39;;;;;;;20.63;18.43;;;;;;;-0.07;99.21;98734.28;5019855;28;20192;-74
2022/12/14 06:04:05;;;;;;;20.17;18.07;;;;;;;-0.10;99.26;98732.59;5019295;28;20210;-75
2022/12/14 06:06:32;;;;;;;21.20;18.83;;;;;;;-0.12;99.63;98738.47;5030905;28;20187;-74
2022/12/14 06:08:57;;;;;;;20.47;18.33;;;;;;;-0.12;99.86;98749.53;5024012;28;20198;-72
2022/12/14 06:11:23;;;;;;;22.13;19.73;;;;;;;-0.12;100.00;98744.44;5028530;28;20190;-74
2022/12/14 06:13:49;;;;;;;21.43;18.57;;;;;;;-0.14;100.00;98740.16;5034007;28;20226;-74
2022/12/14 06:16:16;;;;;;;23.73;21.10;;;;;;;-0.14;100.00;98732.53;5030300;28;20208;-74
2022/12/14 06:18:43;;;;;;;23.47;19.87;;;;;;;-0.12;100.00;98728.31;5036642;28;20179;-74
2022/12/14 06:21:09;;;;;;;22.83;20.43;;;;;;;-0.14;100.00;98713.03;5029979;28;20270;-74
2022/12/14 06:23:34;;;;;;;25.10;22.40;;;;;;;-0.19;100.00;98710.47;5032143;28;20289;-74
2022/12/14 06:26:00;;;;;;;32.03;21.97;;;;;;;-0.20;100.00;98708.75;5036090;28;20188;-73
2022/12/14 06:28:25;;;;;;;31.57;22.20;;;;;;;-0.21;100.00;98694.34;5041404;28;20175;-75
2022/12/14 06:30:50;;;;;;;24.63;20.83;;;;;;;-0.23;100.00;98683.31;5049954;28;20203;-74
2022/12/14 06:33:15;;;;;;;23.93;18.73;;;;;;;-0.24;100.00;98676.50;5037658;28;20215;-74
2022/12/14 06:35:45;;;;;;;22.87;18.67;;;;;;;-0.24;100.00;98673.97;5039571;28;20220;-74
2022/12/14 06:38:11;;;;;;;21.47;19.17;;;;;;;-0.24;100.00;98694.31;5035192;28;20561;-73
2022/12/14 06:40:36;;;;;;;21.60;19.37;;;;;;;-0.22;100.00;98674.84;5037160;28;20194;-74
2022/12/14 06:43:01;;;;;;;22.37;19.97;;;;;;;-0.26;100.00;98654.47;5047663;28;20203;-74
2022/12/14 06:45:28;;;;;;;22.10;19.33;;;;;;;-0.36;100.00;98653.53;5039504;28;20729;-74
2022/12/14 06:47:53;;;;;;;22.30;19.37;;;;;;;-0.39;100.00;98666.22;5032977;28;20221;-73
2022/12/14 06:50:19;;;;;;;20.63;18.43;;;;;;;-0.39;100.00;98656.91;5030178;28;20678;-73
2022/12/14 06:52:47;;;;;;;22.57;20.17;;;;;;;-0.34;100.00;98655.25;5037113;28;20220;-73
2022/12/14 06:55:13;;;;;;;20.87;18.67;;;;;;;-0.32;100.00;98661.19;5029485;28;20218;-72
2022/12/14 06:57:38;;;;;;;23.20;19.80;;;;;;;-0.28;100.00;98656.16;5024673;28;20298;-73
2022/12/14 07:00:04;;;;;;;22.17;19.67;;;;;;;-0.29;100.00;98659.53;5029459;28;20206;-72
2022/12/14 07:02:29;;;;;;;22.10;19.77;;;;;;;-0.33;100.00;98661.19;5030628;28;20199;-73
2022/12/14 07:04:55;;;;;;;23.83;21.33;;;;;;;-0.38;100.00;98661.13;5048990;28;20692;-73
2022/12/14 07:07:20;;;;;;;25.33;22.63;;;;;;;-0.48;100.00;98662.75;5029275;28;20197;-73
2022/12/14 07:09:45;;;;;;;23.63;20.83;;;;;;;-0.53;100.00;98656.78;5027417;28;20277;-73
2022/12/14 07:12:11;;;;;;;24.43;21.23;;;;;;;-0.55;100.00;98655.91;5027756;28;20719;-73
2022/12/14 07:14:36;;;;;;;24.20;21.60;;;;;;;-0.62;100.00;98657.53;5028862;28;20233;-73
2022/12/14 07:17:01;;;;;;;25.40;21.90;;;;;;;-0.70;100.00;98659.16;5022501;28;20193;-74
2022/12/14 07:19:26;;;;;;;23.40;20.90;;;;;;;-0.73;100.00;98660.78;5025911;28;20255;-73
2022/12/14 07:21:52;;;;;;;24.67;22.13;;;;;;;-0.75;100.00;98654.84;5048184;28;20670;-73
2022/12/14 07:24:17;;;;;;;22.93;19.97;;;;;;;-0.75;100.00;98663.31;5026395;28;20259;-73
2022/12/14 07:26:42;;;;;;;27.57;22.13;;;;;;;-0.77;100.00;98654.84;5009547;28;20191;-73
2022/12/14 07:29:10;;;;;;;25.90;21.57;;;;;;;-0.82;100.00;98659.00;5026988;28;20185;-73
2022/12/14 07:31:35;;;;;;;25.43;22.43;;;;;;;-0.86;100.00;98665.75;5027817;28;20189;-76
2022/12/14 07:34:01;;;;;;;25.07;21.90;;;;;;;-0.89;100.00;98663.16;5025977;28;20216;-73
2022/12/14 07:36:28;;;;;;;24.70;21.07;;;;;;;-0.89;100.00;98658.09;5030364;28;20193;-73
2022/12/14 07:38:54;;;;;;;23.07;20.57;;;;;;;-0.89;100.00;98655.53;5006766;28;20620;-74
2022/12/14 07:41:29;;;;;;;23.30;20.80;;;;;;;-0.86;100.00;98647.13;5026618;28;20208;-73
2022/12/14 07:43:56;;;;;;;24.63;20.67;;;;;;;-0.86;100.00;98652.22;5026246;28;20241;-73
2022/12/14 07:46:24;;;;;;;22.70;19.80;;;;;;;-0.86;100.00;98649.66;5026673;28;20194;-73
2022/12/14 07:48:52;;;;;;;23.20;20.73;;;;;;;-0.83;100.00;98650.53;5029355;28;20280;-74
2022/12/14 07:51:20;;;;;;;22.93;20.27;;;;;;;-0.82;100.00;98639.56;5027176;28;20199;-74
2022/12/14 07:53:46;;;;;;;24.13;21.53;;;;;;;-0.78;100.00;98650.59;5019721;28;20227;-74
2022/12/14 07:56:14;;;;;;;23.90;21.13;;;;;;;-0.80;100.00;98647.19;5032709;28;20209;-73
2022/12/14 07:58:40;;;;;;;24.83;22.23;;;;;;;-0.80;100.00;98652.25;5025735;28;20213;-72
2022/12/14 08:01:10;;;;;;;25.73;23.03;;;;;;;-0.80;100.00;98649.72;5057261;28;20177;-74
2022/12/14 08:03:35;;;;;;;27.60;23.80;;;;;;;-0.88;100.00;98649.63;5059114;28;20221;-71
2022/12/14 08:06:08;;;;;;;25.60;22.50;;;;;;;-0.91;100.00;98657.25;5037717;28;20189;-73
2022/12/14 08:08:34;;;;;;;24.60;21.67;;;;;;;-0.93;100.00;98656.38;5025152;28;20199;-73
2022/12/14 08:11:00;;;;;;;26.90;24.00;;;;;;;-0.96;100.00;98662.25;5019625;28;20188;-74
2022/12/14 08:13:25;;;;;;;25.50;21.73;;;;;;;-0.98;100.00;98673.22;5030018;28;20800;-72
2022/12/14 08:15:51;;;;;;;24.57;21.97;;;;;;;-0.99;100.00;98661.38;5026278;28;20188;-72
2022/12/14 08:18:16;;;;;;;25.63;21.90;;;;;;;-0.98;100.00;98671.53;5028033;28;20194;-71
2022/12/14 08:20:41;;;;;;;24.30;21.70;;;;;;;-0.96;100.00;98658.88;5031188;28;20218;-74
2022/12/14 08:23:07;;;;;;;25.03;21.80;;;;;;;-0.91;100.00;98652.16;5033577;28;20331;-73
2022/12/14 08:25:32;;;;;;;23.77;21.27;;;;;;;-0.83;100.00;98654.78;5032617;28;20224;-74
2022/12/14 08:27:57;;;;;;;30.10;25.57;;;;;;;-0.80;100.00;98640.41;5032959;28;20205;-74
2022/12/14 08:30:23;;;;;;;29.23;23.80;;;;;;;-0.78;100.00;98636.22;5039906;28;20236;-73
2022/12/14 08:32:48;;;;;;;27.63;23.57;;;;;;;-0.78;100.00;98626.06;5041808;28;20320;-73
2022/12/14 08:35:13;;;;;;;30.03;24.37;;;;;;;-0.75;100.00;98627.75;5018236;28;20193;-72
2022/12/14 08:37:39;;;;;;;26.33;22.87;;;;;;;-0.68;100.00;98613.44;5034143;28;20195;-73
2022/12/14 08:40:05;;;;;;;27.57;23.77;;;;;;;-0.65;100.00;98621.91;5027872;28;20206;-72
2022/12/14 08:42:30;;;;;;;26.50;22.13;;;;;;;-0.60;100.00;98621.97;5032214;28;20660;-73
2022/12/14 08:44:55;;;;;;;24.57;21.57;;;;;;;-0.55;100.00;98617.78;5049723;28;20206;-73
2022/12/14 08:47:20;;;;;;;28.30;23.93;;;;;;;-0.51;100.00;98618.66;5031248;28;20715;-72
2022/12/14 08:49:46;;;;;;;24.53;22.03;;;;;;;-0.48;100.00;98609.38;5035628;28;20196;-72
2022/12/14 08:52:11;;;;;;;25.30;22.70;;;;;;;-0.43;100.00;98600.94;5037682;28;20191;-73
2022/12/14 08:54:36;;;;;;;27.23;24.27;;;;;;;-0.38;100.00;98605.22;5027889;28;20210;-72
2022/12/14 08:57:02;;;;;;;26.03;22.83;;;;;;;-0.36;100.00;98606.06;5020486;28;20717;-74
2022/12/14 08:59:28;;;;;;;26.40;22.60;;;;;;;-0.35;100.00;98601.84;5050337;28;20577;-74
2022/12/14 09:01:53;;;;;;;27.20;23.57;;;;;;;-0.35;100.00;98610.31;5049304;28;20182;-74
2022/12/14 09:04:19;;;;;;;26.17;23.47;;;;;;;-0.37;100.00;98612.00;5030315;28;20204;-73
2022/12/14 09:06:44;;;;;;;25.80;23.10;;;;;;;-0.38;100.00;98612.00;5033628;28;20252;-75
2022/12/14 09:09:10;;;;;;;25.80;23.13;;;;;;;-0.39;100.00;98615.38;5032353;28;20543;-75
2022/12/14 09:11:35;;;;;;;26.43;23.17;;;;;;;-0.40;100.00;98622.16;5036082;28;20821;-74
2022/12/14 09:14:00;;;;;;;27.90;24.80;;;;;;;-0.44;100.00;98622.09;5027147;28;20637;-73
2022/12/14 09:16:26;;;;;;;27.27;24.40;;;;;;;-0.45;100.00;98625.50;5026699;28;20176;-73
2022/12/14 09:18:52;;;;;;;26.67;23.87;;;;;;;-0.49;100.00;98625.47;5033198;28;20181;-72
2022/12/14 09:21:18;;;;;;;27.30;24.37;;;;;;;-0.45;100.00;98631.44;5025912;28;20191;-73
2022/12/14 09:23:44;;;;;;;28.83;25.73;;;;;;;-0.38;100.00;98637.41;5034096;28;20190;-73
2022/12/14 09:26:15;;;;;;;29.37;24.60;;;;;;;-0.38;100.00;98642.50;5028326;28;20189;-73
2022/12/14 09:29:01;;;;;;;28.00;25.10;;;;;;;-0.46;100.00;98637.34;5033786;28;20189;-73
2022/12/14 09:31:27;;;;;;;27.23;24.30;;;;;;;-0.55;100.00;98645.72;5025679;28;20270;-73
2022/12/14 09:33:53;;;;;;;30.60;26.17;;;;;;;-0.60;100.00;98649.06;5026873;28;20219;-73
2022/12/14 09:36:24;;;;;;;28.10;25.13;;;;;;;-0.66;100.00;98649.88;5031201;28;20186;-74
2022/12/14 09:38:50;;;;;;;29.90;25.97;;;;;;;-0.72;100.00;98645.59;5024811;28;20722;-74
2022/12/14 09:41:33;;;;;;;33.03;27.93;;;;;;;-0.74;100.00;98631.13;5026360;28;20379;-74
2022/12/14 09:44:06;;;;;;;30.17;26.93;;;;;;;-0.72;100.00;98627.81;5033162;28;20198;-73
2022/12/14 09:47:04;;;;;;;31.27;25.77;;;;;;;-0.69;100.00;98637.13;5024027;28;20279;-73
2022/12/14 09:49:38;;;;;;;29.87;26.00;;;;;;;-0.66;100.00;98639.72;5028439;28;20282;-74
2022/12/14 09:52:09;;;;;;;28.30;25.23;;;;;;;-0.65;100.00;98649.88;5027660;28;20279;-73
2022/12/14 09:54:37;;;;;;;30.23;26.67;;;;;;;-0.65;100.00;98636.34;5027918;28;20594;-72
2022/12/14 09:57:10;;;;;;;28.07;24.93;;;;;;;-0.63;100.00;98627.88;5031995;28;20651;-72
2022/12/14 09:59:36;;;;;;;29.80;26.47;;;;;;;-0.53;100.00;98616.13;5034549;28;20276;-73
2022/12/14 10:02:26;;;;;;;28.90;25.80;;;;;;;-0.38;100.00;98630.63;5026636;28;20785;-72
2022/12/14 10:05:13;;;;;;;29.97;26.50;;;;;;;-0.33;100.00;98623.06;5021817;28;20719;-74
2022/12/14 10:07:55;;;;;;;30.27;26.23;;;;;;;-0.34;100.00;98618.81;5026900;28;20191;-72
2022/12/14 10:10:36;;;;;;;29.30;26.20;;;;;;;-0.29;100.00;98622.22;5025872;28;20187;-73
2022/12/14 10:13:01;;;;;;;30.50;27.30;;;;;;;-0.25;100.00;98621.41;5024131;28;20314;-72
2022/12/14 10:15:43;;;;;;;31.33;26.87;;;;;;;-0.18;100.00;98632.47;5031968;28;20265;-75
2022/12/14 10:18:23;;;;;;;32.57;28.53;;;;;;;-0.15;100.00;98640.16;5057735;28;20176;-76
2022/12/14 10:21:03;;;;;;;30.73;27.43;;;;;;;-0.17;100.00;98634.19;5039338;28;20190;-73
2022/12/14 10:23:30;;;;;;;32.43;28.97;;;;;;;-0.18;100.00;98637.56;5026131;28;20210;-73
2022/12/14 10:26:01;;;;;;;29.17;26.07;;;;;;;-0.13;100.00;98652.84;5025943;28;20210;-73
2022/12/14 10:28:49;;;;;;;30.33;26.83;;;;;;;-0.10;100.00;98647.81;5025050;28;20197;-74
2022/12/14 10:31:25;;;;;;;31.03;27.60;;;;;;;-0.18;100.00;98645.19;5028096;28;20191;-73
2022/12/14 10:33:52;;;;;;;30.17;26.93;;;;;;;-0.17;100.00;98639.28;5023379;28;20221;-74
2022/12/14 10:36:25;;;;;;;32.20;28.83;;;;;;;-0.18;100.00;98635.03;5023051;28;20518;-72
2022/12/14 10:38:58;;;;;;;29.47;26.10;;;;;;;-0.14;100.00;98629.13;5024877;28;21018;-73
2022/12/14 10:41:42;;;;;;;30.70;27.60;;;;;;;-0.05;100.00;98634.28;5025850;28;20179;-73
2022/12/14 10:44:25;;;;;;;30.97;27.70;;;;;;;0.03;100.00;98631.78;5022146;28;20207;-72
2022/12/14 10:46:58;;;;;;;30.87;27.37;;;;;;;0.12;100.00;98636.97;5033941;28;20183;-72
2022/12/14 10:49:32;;;;;;;30.87;27.70;;;;;;;0.19;100.00;98634.44;5029206;28;20214;-75
2022/12/14 10:52:07;;;;;;;29.57;26.67;;;;;;;0.26;100.00;98628.56;5005576;28;20232;-73
2022/12/14 10:54:37;;;;;;;31.43;28.03;;;;;;;0.23;100.00;98628.53;5023018;28;20223;-75
2022/12/14 10:57:03;;;;;;;31.03;27.90;;;;;;;0.17;100.00;98625.94;5040915;28;20186;-74
2022/12/14 10:59:32;;;;;;;30.23;26.97;;;;;;;0.13;100.00;98631.03;5035831;28;20241;-73
2022/12/14 11:02:02;;;;;;;31.67;28.27;;;;;;;0.18;100.00;98631.06;5030565;28;20170;-74
2022/12/14 11:04:30;;;;;;;35.60;30.90;;;;;;;0.16;100.00;98630.19;5034763;28;21051;-74
2022/12/14 11:07:08;;;;;;;89.03;62.87;;;;;;;0.18;100.00;98630.19;5007108;28;20222;-73
2022/12/14 11:09:34;;;;;;;48.43;38.60;;;;;;;0.18;100.00;98625.97;5030646;28;20196;-73
2022/12/14 11:12:07;;;;;;;39.13;33.63;;;;;;;0.28;100.00;98624.31;5034443;28;20277;-75
2022/12/14 11:14:35;;;;;;;31.83;28.43;;;;;;;0.40;100.00;98634.56;5049929;28;20293;-73
2022/12/14 11:17:01;;;;;;;33.07;29.63;;;;;;;0.43;100.00;98632.06;5031770;28;20170;-72
2022/12/14 11:19:27;;;;;;;33.10;29.60;;;;;;;0.46;100.00;98641.38;5028583;28;20187;-72
2022/12/14 11:22:10;;;;;;;32.00;28.60;;;;;;;0.43;100.00;98634.59;5033488;28;20182;-73
2022/12/14 11:24:44;;;;;;;31.70;28.50;;;;;;;0.43;100.00;98628.63;5019504;28;20196;-72
2022/12/14 11:27:10;;;;;;;30.03;26.93;;;;;;;0.41;100.00;98627.78;5022049;28;20194;-73
2022/12/14 11:29:38;;;;;;;29.43;26.37;;;;;;;0.39;100.00;98627.78;5026784;28;20198;-72
2022/12/14 11:32:05;;;;;;;28.13;25.20;;;;;;;0.33;100.00;98629.44;5025531;28;20179;-73
2022/12/14 11:34:34;;;;;;;28.90;25.97;;;;;;;0.28;100.00;98639.59;5007165;28;20215;-73
2022/12/14 11:37:13;;;;;;;32.40;28.20;;;;;;;0.22;100.00;98642.97;5023577;28;20198;-73
2022/12/14 11:39:41;;;;;;;30.83;27.63;;;;;;;0.15;100.00;98646.28;5022042;28;20186;-72
2022/12/14 11:42:15;;;;;;;29.60;26.50;;;;;;;0.14;100.00;98649.66;5026312;28;20757;-74